Time;durP1;ratioP1;P1;durP2;ratioP2;P2;SDS_P1;SDS_P2;PMS_P1;PMS_P2;Temp;Humidity;BMP_temperature;BMP_pressure;BME280_temperature;BME280_humidity;BME280_pressure;Samples;Min_cycle;Max_cycle;Signal;HPM_P1;HPM_P2
2022/09/07 00:00:51;;;;;;;2.60;2.10;;;;;;;22.38;57.27;101909.22;5034579;28;20529;-83
2022/09/07 00:03:17;;;;;;;2.00;1.77;;;;;;;22.36;57.37;101914.50;5002709;28;20038;-83
2022/09/07 00:05:42;;;;;;;;;;;;;;;;;;5034606;28;20505;-83
2022/09/07 00:08:08;;;;;;;2.28;1.88;;;;;;;22.36;57.24;101916.28;5033209;28;19913;-82
2022/09/07 00:10:34;;;;;;;1.80;1.70;;;;;;;22.29;57.12;101901.91;5032949;28;20021;-83
2022/09/07 00:13:00;;;;;;;2.00;1.80;;;;;;;22.32;57.27;101901.09;5033780;28;20031;-83
2022/09/07 00:15:26;;;;;;;2.60;1.90;;;;;;;22.28;57.48;101893.91;5033794;28;20544;-83
2022/09/07 00:17:52;;;;;;;2.30;2.10;;;;;;;22.30;57.27;101892.16;5015935;28;20021;-83
2022/09/07 00:20:17;;;;;;;3.05;1.92;;;;;;;22.39;57.12;101907.44;5032517;28;20110;-82
2022/09/07 00:22:44;;;;;;;2.20;2.00;;;;;;;22.33;57.33;101903.78;5033131;28;20069;-83
2022/09/07 00:25:11;;;;;;;4.88;1.95;;;;;;;22.32;57.48;101907.31;5033762;28;20031;-83
2022/09/07 00:27:36;;;;;;;2.15;1.95;;;;;;;22.33;57.40;101903.78;5032863;28;20041;-83
2022/09/07 00:30:04;;;;;;;2.17;1.83;;;;;;;22.30;57.36;101893.06;5033915;28;20071;-82
2022/09/07 00:32:29;;;;;;;2.97;2.00;;;;;;;22.31;57.10;101897.53;5033737;28;20032;-82
2022/09/07 00:34:55;;;;;;;2.63;1.88;;;;;;;22.15;57.13;101869.63;5033506;28;20021;-82
2022/09/07 00:37:21;;;;;;;2.58;1.90;;;;;;;22.19;57.01;101877.69;5032868;28;20472;-82
2022/09/07 00:39:46;;;;;;;;;;;;;;;22.30;57.28;101900.16;5033990;28;20052;-82
2022/09/07 00:42:12;;;;;;;2.60;1.90;;;;;;;22.27;56.98;101887.69;5033817;28;19909;-82
2022/09/07 00:44:43;;;;;;;2.05;1.75;;;;;;;22.29;57.32;101896.59;5032012;28;20517;-82
2022/09/07 00:47:13;;;;;;;1.95;1.70;;;;;;;22.28;57.36;101889.47;5033630;28;20037;-82
2022/09/07 00:49:39;;;;;;;2.70;2.03;;;;;;;22.22;57.20;101891.03;5015847;28;20025;-82
2022/09/07 00:52:06;;;;;;;2.10;1.90;;;;;;;22.27;57.39;101898.31;5015365;28;20074;-82
2022/09/07 00:54:34;;;;;;;1.90;1.80;;;;;;;22.23;57.40;101899.13;5013976;28;20502;-82
2022/09/07 00:57:00;;;;;;;2.88;1.80;;;;;;;22.20;57.41;101879.47;5015639;28;20048;-82
2022/09/07 00:59:29;;;;;;;2.05;1.85;;;;;;;22.20;57.35;101890.13;5015602;28;20471;-81
2022/09/07 01:01:55;;;;;;;3.20;1.95;;;;;;;22.23;57.34;101898.22;5012176;28;20086;-81
2022/09/07 01:04:21;;;;;;;2.10;1.90;;;;;;;22.24;57.13;101892.91;5015442;28;20029;-81
2022/09/07 01:06:47;;;;;;;;;;;;;;;22.27;57.02;101898.31;5033611;28;20556;-82
2022/09/07 01:09:21;;;;;;;4.20;2.17;;;;;;;22.18;57.45;101892.72;5034002;28;19909;-81
2022/09/07 01:12:04;;;;;;;2.10;1.83;;;;;;;22.21;57.50;101892.81;5017903;28;20048;-81
2022/09/07 01:14:36;;;;;;;1.95;1.77;;;;;;;22.20;57.26;101895.44;5042049;28;20034;-81
2022/09/07 01:17:04;;;;;;;2.10;1.90;;;;;;;22.22;57.04;101880.41;5036641;28;20032;-81
2022/09/07 01:20:14;;;;;;;2.20;2.03;;;;;;;22.13;57.20;101881.09;5040808;28;20030;-81
2022/09/07 01:23:01;;;;;;;2.88;1.77;;;;;;;22.17;57.19;101885.63;5032216;28;20111;-81
2022/09/07 01:26:04;;;;;;;2.97;1.98;;;;;;;22.19;57.20;101893.66;5033259;28;20038;-81
2022/09/07 01:28:31;;;;;;;2.30;1.83;;;;;;;22.16;57.27;101894.44;5033197;28;20055;-81
2022/09/07 01:31:01;;;;;;;2.05;1.85;;;;;;;22.12;57.22;101884.63;5014003;28;20882;-81
2022/09/07 01:33:30;;;;;;;1.88;1.77;;;;;;;22.13;57.34;101894.38;5015366;28;20033;-81
2022/09/07 01:36:09;;;;;;;1.92;1.77;;;;;;;22.12;57.54;101881.97;5031835;28;20037;-81
2022/09/07 01:38:45;;;;;;;2.70;2.28;;;;;;;22.13;57.41;101887.28;5013361;28;20040;-81
2022/09/07 01:41:16;;;;;;;2.28;2.08;;;;;;;22.15;57.20;101879.38;5032543;28;20096;-81
2022/09/07 01:43:44;;;;;;;3.50;1.92;;;;;;;22.13;57.28;101883.75;5032764;28;20488;-82
2022/09/07 01:46:17;;;;;;;3.03;1.85;;;;;;;22.11;57.55;101881.03;5014718;28;20029;-82
2022/09/07 01:48:43;;;;;;;2.40;2.20;;;;;;;22.08;57.04;101866.78;5031805;28;20025;-82
2022/09/07 01:51:11;;;;;;;2.88;2.10;;;;;;;22.13;57.01;101875.75;4998126;28;20176;-82
2022/09/07 01:53:41;;;;;;;2.20;1.88;;;;;;;22.12;57.30;101884.63;5032521;28;20064;-82
2022/09/07 01:56:13;;;;;;;2.25;2.05;;;;;;;22.10;57.38;101879.25;5031920;28;20419;-82
2022/09/07 01:59:00;;;;;;;2.03;1.67;;;;;;;22.13;57.49;101875.75;5030882;28;20027;-83
2022/09/07 02:01:32;;;;;;;2.47;2.00;;;;;;;22.05;57.36;101864.94;5032083;28;20100;-82
2022/09/07 02:04:10;;;;;;;1.90;1.80;;;;;;;22.07;57.44;101864.97;5014944;28;20029;-82
2022/09/07 02:06:49;;;;;;;3.47;1.67;;;;;;;22.09;57.30;101877.44;5010167;28;20430;-83
2022/09/07 02:09:32;;;;;;;2.25;1.80;;;;;;;22.06;57.19;101876.50;5013616;28;20029;-82
2022/09/07 02:12:02;;;;;;;2.00;1.80;;;;;;;21.96;57.27;101843.44;5031808;28;20026;-83
2022/09/07 02:14:36;;;;;;;2.33;1.80;;;;;;;22.05;57.43;101864.94;4995065;28;20444;-81
2022/09/07 02:17:15;;;;;;;2.10;1.90;;;;;;;22.02;57.21;101854.22;5012728;28;20056;-81
2022/09/07 02:19:50;;;;;;;2.10;1.90;;;;;;;21.97;57.29;101850.56;5032191;28;20086;-82
2022/09/07 02:22:18;;;;;;;1.92;1.73;;;;;;;22.04;57.14;101863.16;5014038;28;20157;-82
2022/09/07 02:24:47;;;;;;;2.70;2.00;;;;;;;22.01;57.19;101860.38;5014374;28;20048;-82
2022/09/07 02:27:17;;;;;;;2.67;1.80;;;;;;;22.01;57.24;101857.72;5013282;28;20017;-81
2022/09/07 02:29:43;;;;;;;2.47;1.90;;;;;;;21.96;57.28;101854.97;5031991;28;20043;-82
2022/09/07 02:32:09;;;;;;;2.22;2.00;;;;;;;22.00;57.25;101858.59;5029992;28;20487;-82
2022/09/07 02:34:35;;;;;;;2.28;1.85;;;;;;;21.94;57.45;101854.03;5014150;28;20462;-83
2022/09/07 02:37:01;;;;;;;;;;;;;;;21.92;57.22;101839.78;5030983;28;20029;-83
2022/09/07 02:39:26;;;;;;;3.92;2.03;;;;;;;21.87;57.35;101837.91;5014068;28;19909;-81
2022/09/07 02:41:52;;;;;;;2.38;1.92;;;;;;;21.98;57.11;101854.13;5013978;28;20160;-81
2022/09/07 02:44:33;;;;;;;2.10;1.88;;;;;;;21.99;57.29;101856.78;5026739;28;20032;-82
2022/09/07 02:47:23;;;;;;;3.75;2.05;;;;;;;21.93;57.22;101854.91;5022887;28;20105;-82
2022/09/07 02:50:28;;;;;;;2.20;2.00;;;;;;;22.00;57.10;101868.34;5001135;28;20490;-84
2022/09/07 02:53:15;;;;;;;3.33;1.92;;;;;;;21.97;57.15;101861.22;5027950;28;20033;-83
2022/09/07 02:56:16;;;;;;;2.30;2.10;;;;;;;21.91;57.11;101855.72;5031375;28;20032;-83
2022/09/07 02:58:45;;;;;;;3.08;1.88;;;;;;;21.95;57.02;101862.94;5001423;28;20029;-81
2022/09/07 03:01:32;;;;;;;1.85;1.75;;;;;;;21.94;57.16;101864.66;5009551;28;20079;-82
2022/09/07 03:04:11;;;;;;;2.15;1.95;;;;;;;21.92;57.20;101862.84;5014017;28;20024;-83
2022/09/07 03:06:40;;;;;;;2.60;2.10;;;;;;;21.90;57.43;101862.78;5029263;28;20053;-82
2022/09/07 03:09:19;;;;;;;2.30;2.10;;;;;;;21.91;57.33;101863.72;5030563;28;20028;-82
2022/09/07 03:11:44;;;;;;;1.92;1.70;;;;;;;21.87;57.24;101856.53;5012949;28;20028;-81
2022/09/07 03:14:12;;;;;;;2.00;1.80;;;;;;;21.91;57.29;101867.25;5013449;28;20026;-82
2022/09/07 03:16:38;;;;;;;2.65;2.13;;;;;;;21.89;57.44;101874.31;5029868;28;20029;-80
2022/09/07 03:19:04;;;;;;;2.30;2.10;;;;;;;21.88;57.56;101876.91;5033056;28;20048;-81
2022/09/07 03:21:30;;;;;;;3.03;2.13;;;;;;;21.88;57.17;101875.16;5017479;28;20172;-81
2022/09/07 03:23:56;;;;;;;2.10;1.90;;;;;;;21.87;57.12;101875.13;5034432;28;20505;-81
2022/09/07 03:26:25;;;;;;;3.13;2.05;;;;;;;21.81;57.33;101867.88;5032766;28;20033;-81
2022/09/07 03:28:51;;;;;;;3.00;2.00;;;;;;;21.73;57.17;101856.16;5033475;28;20025;-82
2022/09/07 03:31:16;;;;;;;2.53;1.98;;;;;;;21.83;57.25;101874.16;5017069;28;20506;-82
2022/09/07 03:33:42;;;;;;;2.35;2.10;;;;;;;21.88;57.25;101883.13;5017268;28;20037;-80
2022/09/07 03:36:08;;;;;;;2.33;2.08;;;;;;;21.83;57.35;101879.47;5044907;28;20499;-80
2022/09/07 03:38:34;;;;;;;2.03;1.80;;;;;;;21.70;57.23;101856.97;5034547;28;20494;-80
2022/09/07 03:41:00;;;;;;;2.75;2.05;;;;;;;21.82;57.37;101882.06;5016877;28;20031;-81
2022/09/07 03:43:26;;;;;;;2.15;1.92;;;;;;;21.84;57.34;101886.56;5033551;28;20037;-82
2022/09/07 03:45:57;;;;;;;1.98;1.70;;;;;;;21.83;57.25;101892.75;5016579;28;20022;-82
2022/09/07 03:48:23;;;;;;;2.67;2.13;;;;;;;21.79;57.23;101879.34;5039525;28;20080;-81
2022/09/07 03:51:03;;;;;;;2.20;1.88;;;;;;;21.87;57.10;101896.41;5034117;28;20044;-81
2022/09/07 03:53:30;;;;;;;2.30;1.90;;;;;;;21.75;57.26;101884.56;5038390;28;20030;-81
2022/09/07 03:56:10;;;;;;;2.28;2.08;;;;;;;21.81;57.29;101891.81;5033015;28;20415;-81
2022/09/07 03:58:37;;;;;;;3.15;2.03;;;;;;;21.78;57.08;101891.75;5012700;28;20392;-81
2022/09/07 04:01:09;;;;;;;2.55;2.05;;;;;;;21.80;57.17;101889.13;5033766;28;20499;-81
2022/09/07 04:03:35;;;;;;;1.98;1.77;;;;;;;21.73;57.04;101880.97;5022967;28;20534;-80
2022/09/07 04:06:01;;;;;;;2.28;1.92;;;;;;;21.79;57.12;101895.31;5015599;28;20041;-82
2022/09/07 04:08:28;;;;;;;2.40;2.10;;;;;;;21.78;56.98;101905.06;5032740;28;20029;-80
2022/09/07 04:10:59;;;;;;;5.15;2.00;;;;;;;21.77;57.18;101908.56;5032756;28;20025;-81
2022/09/07 04:13:25;;;;;;;2.10;1.90;;;;;;;21.79;57.19;101901.50;5032354;28;20041;-81
2022/09/07 04:15:51;;;;;;;2.00;1.80;;;;;;;21.78;57.35;101904.13;5016107;28;20017;-81
2022/09/07 04:18:16;;;;;;;4.13;2.10;;;;;;;21.73;57.29;101890.72;5032050;28;20052;-81
2022/09/07 04:20:43;;;;;;;2.67;2.00;;;;;;;21.73;57.39;101904.91;5032903;28;20072;-80
2022/09/07 04:23:08;;;;;;;2.10;1.90;;;;;;;21.53;57.40;101867.16;5032053;28;20077;-79
2022/09/07 04:25:34;;;;;;;2.20;2.00;;;;;;;21.73;57.24;101901.34;5032288;28;20126;-80
2022/09/07 04:28:00;;;;;;;2.63;2.00;;;;;;;21.75;57.11;101908.50;5031893;28;20128;-78
2022/09/07 04:30:25;;;;;;;2.50;1.85;;;;;;;21.70;57.08;101901.28;5032818;28;20030;-79
2022/09/07 04:32:51;;;;;;;2.15;1.95;;;;;;;21.73;57.31;101904.00;5014342;28;20064;-80
2022/09/07 04:35:18;;;;;;;1.98;1.80;;;;;;;21.68;57.36;101895.91;5030381;28;20075;-79
2022/09/07 04:37:59;;;;;;;2.53;2.00;;;;;;;21.72;57.26;101902.22;5034468;28;20107;-80
2022/09/07 04:40:26;;;;;;;3.03;2.25;;;;;;;21.72;57.26;101889.81;5036418;28;20044;-79
2022/09/07 04:42:52;;;;;;;2.60;2.40;;;;;;;21.70;57.33;101895.97;5052164;28;20089;-79
2022/09/07 04:45:17;;;;;;;5.35;2.13;;;;;;;21.73;57.46;101898.69;5050303;28;20025;-81
2022/09/07 04:47:47;;;;;;;2.08;1.85;;;;;;;21.71;57.31;101900.41;5035816;28;20034;-81
2022/09/07 04:50:13;;;;;;;2.20;2.00;;;;;;;21.71;57.44;101895.97;5033907;28;20025;-81
2022/09/07 04:52:39;;;;;;;2.40;2.20;;;;;;;21.62;57.24;101876.25;5028438;28;20029;-81
2022/09/07 04:55:05;;;;;;;2.75;2.35;;;;;;;21.70;57.35;101895.97;5033150;28;20028;-79
2022/09/07 04:57:31;;;;;;;2.15;1.95;;;;;;;21.69;57.32;101902.13;5030118;28;20059;-79
2022/09/07 04:59:56;;;;;;;1.85;1.63;;;;;;;21.66;57.62;101916.25;5014327;28;20499;-81
2022/09/07 05:02:22;;;;;;;2.70;1.90;;;;;;;21.50;57.58;101883.03;5032115;28;20037;-81
2022/09/07 05:04:47;;;;;;;3.38;2.10;;;;;;;21.68;57.46;101905.66;5007886;28;20029;-81
2022/09/07 05:07:14;;;;;;;4.05;2.22;;;;;;;21.69;57.25;101921.63;5031184;28;20072;-81
2022/09/07 05:09:40;;;;;;;2.60;2.20;;;;;;;21.68;57.44;101921.63;5031993;28;20029;-81
2022/09/07 05:12:05;;;;;;;2.30;2.03;;;;;;;21.44;57.48;101876.66;5031185;28;20029;-81
2022/09/07 05:14:31;;;;;;;3.95;2.17;;;;;;;21.66;57.47;101910.94;5031598;28;20037;-81
2022/09/07 05:16:57;;;;;;;2.92;2.03;;;;;;;21.46;57.75;101891.81;5031999;28;20048;-80
2022/09/07 05:19:22;;;;;;;3.30;2.10;;;;;;;21.65;57.43;101911.81;5028106;28;20064;-80
2022/09/07 05:21:48;;;;;;;2.65;1.80;;;;;;;21.60;57.51;101915.19;5030904;28;20491;-81
2022/09/07 05:24:13;;;;;;;3.03;2.28;;;;;;;21.64;57.44;101920.63;5030820;28;20035;-81
2022/09/07 05:26:39;;;;;;;2.25;1.92;;;;;;;21.68;57.57;101924.28;5031269;28;20084;-81
2022/09/07 05:29:06;;;;;;;2.85;1.90;;;;;;;21.67;57.39;101928.66;5029437;28;20482;-79
2022/09/07 05:31:32;;;;;;;2.55;2.30;;;;;;;21.66;57.44;101934.84;5012442;28;20025;-80
2022/09/07 05:33:58;;;;;;;2.40;2.20;;;;;;;21.61;57.75;101927.59;5011715;28;20114;-80
2022/09/07 05:36:25;;;;;;;2.72;2.03;;;;;;;21.56;57.56;101916.84;5014882;28;20033;-79
2022/09/07 05:38:55;;;;;;;2.60;2.15;;;;;;;21.59;57.68;101922.28;5029784;28;20499;-80
2022/09/07 05:41:25;;;;;;;2.45;2.25;;;;;;;21.63;57.66;101931.22;5028344;28;20124;-81
2022/09/07 05:43:52;;;;;;;2.42;2.10;;;;;;;21.61;57.61;101922.28;5024801;28;20029;-79
2022/09/07 05:46:18;;;;;;;2.47;2.13;;;;;;;21.60;57.76;101924.06;5005506;28;20112;-80
2022/09/07 05:48:44;;;;;;;;;;;;;;;21.64;57.78;101931.25;5019281;28;20052;-79
2022/09/07 05:51:11;;;;;;;2.47;2.03;;;;;;;21.62;57.73;101926.75;5031026;28;20306;-80
2022/09/07 05:53:39;;;;;;;2.67;2.20;;;;;;;21.51;57.72;101911.41;5030409;28;20030;-79
2022/09/07 05:56:06;;;;;;;2.30;2.10;;;;;;;21.53;58.07;101916.78;5012333;28;20040;-81
2022/09/07 05:58:32;;;;;;;2.60;2.15;;;;;;;21.41;58.11;101903.13;5031482;28;20061;-81
2022/09/07 06:01:00;;;;;;;3.45;2.15;;;;;;;21.51;57.88;101921.16;5030967;28;20029;-82
2022/09/07 06:03:26;;;;;;;2.38;2.10;;;;;;;21.51;58.07;101924.72;5006678;28;20037;-81
2022/09/07 06:05:59;;;;;;;2.85;2.08;;;;;;;21.58;57.98;101936.41;5031176;28;20029;-80
2022/09/07 06:08:25;;;;;;;2.45;2.25;;;;;;;21.45;58.32;101918.31;5008122;28;20034;-81
2022/09/07 06:10:51;;;;;;;2.80;2.08;;;;;;;21.09;58.23;101852.63;5031375;28;20351;-80
2022/09/07 06:13:17;;;;;;;2.55;2.35;;;;;;;21.53;58.33;101944.25;5010467;28;20121;-80
2022/09/07 06:15:43;;;;;;;2.47;2.28;;;;;;;21.57;58.22;101946.97;5030291;28;20034;-82
2022/09/07 06:18:09;;;;;;;2.03;1.88;;;;;;;21.42;58.33;101924.47;5029790;28;20037;-82
2022/09/07 06:20:34;;;;;;;3.10;2.20;;;;;;;21.55;58.41;101947.84;5012951;28;20033;-82
2022/09/07 06:23:00;;;;;;;2.78;2.03;;;;;;;21.55;58.24;101946.97;5030294;28;20049;-82
2022/09/07 06:25:25;;;;;;;2.95;2.15;;;;;;;21.50;58.47;101952.13;5030441;28;20029;-82
2022/09/07 06:27:52;;;;;;;2.30;2.00;;;;;;;21.55;58.34;101950.53;5029115;28;20025;-81
2022/09/07 06:30:19;;;;;;;2.50;2.30;;;;;;;21.53;58.50;101952.22;5030877;28;20127;-83
2022/09/07 06:32:44;;;;;;;2.28;2.08;;;;;;;21.52;58.57;101946.88;5001066;28;20029;-82
2022/09/07 06:35:10;;;;;;;2.78;2.20;;;;;;;21.54;58.31;101959.34;5029029;28;20030;-82
2022/09/07 06:37:36;;;;;;;2.40;2.20;;;;;;;21.50;58.49;101953.88;5029835;28;20029;-83
2022/09/07 06:40:02;;;;;;;;;;;;;;;21.47;58.66;101965.34;5030524;28;20035;-83
2022/09/07 06:42:28;;;;;;;2.40;2.20;;;;;;;21.47;58.82;101962.69;5030074;28;20469;-82
2022/09/07 06:44:53;;;;;;;2.95;2.40;;;;;;;21.22;58.91;101920.28;5012757;28;20094;-82
2022/09/07 06:47:19;;;;;;;2.35;2.10;;;;;;;21.32;58.93;101941.84;5031274;28;20071;-82
2022/09/07 06:49:45;;;;;;;2.65;2.45;;;;;;;21.40;59.01;101960.69;5030415;28;20025;-82
2022/09/07 06:52:10;;;;;;;2.60;2.38;;;;;;;21.35;58.87;101944.59;5048927;28;20090;-83
2022/09/07 06:54:36;;;;;;;2.33;2.13;;;;;;;21.39;58.94;101960.63;5029391;28;20403;-82
2022/09/07 06:57:07;;;;;;;2.83;2.30;;;;;;;21.45;58.51;101961.75;5029441;28;20548;-81
2022/09/07 06:59:35;;;;;;;2.97;2.40;;;;;;;21.39;59.17;101964.19;5027729;28;20060;-82
2022/09/07 07:02:01;;;;;;;2.50;2.30;;;;;;;21.40;59.25;101976.63;5012491;28;20071;-83
2022/09/07 07:04:27;;;;;;;3.22;2.33;;;;;;;21.35;59.28;101967.59;5030276;28;20483;-82
2022/09/07 07:06:52;;;;;;;2.97;2.60;;;;;;;21.44;59.05;101975.91;5030164;28;20025;-83
2022/09/07 07:09:18;;;;;;;3.10;2.35;;;;;;;21.41;59.02;101974.88;5028542;28;20071;-82
2022/09/07 07:11:46;;;;;;;3.10;2.40;;;;;;;21.41;59.30;101981.06;5012072;28;20037;-82
2022/09/07 07:14:15;;;;;;;3.15;2.50;;;;;;;21.25;59.32;101958.50;5029908;28;20045;-82
2022/09/07 07:16:41;;;;;;;2.58;2.10;;;;;;;21.29;59.50;101964.78;5023726;28;20474;-82
2022/09/07 07:19:06;;;;;;;3.10;2.50;;;;;;;21.36;59.44;101972.09;5028785;28;20490;-81
2022/09/07 07:21:32;;;;;;;2.95;2.30;;;;;;;21.31;59.66;101971.97;5030394;28;20056;-79
2022/09/07 07:23:57;;;;;;;2.97;2.67;;;;;;;21.40;59.27;101973.97;5028950;28;20041;-80
2022/09/07 07:26:25;;;;;;;3.15;2.72;;;;;;;21.39;59.44;101981.91;5029734;28;20037;-80
2022/09/07 07:28:53;;;;;;;3.20;2.60;;;;;;;21.39;59.52;101976.59;5032536;28;20029;-80
2022/09/07 07:31:20;;;;;;;2.63;2.42;;;;;;;21.25;59.59;101954.91;5029766;28;20026;-80
2022/09/07 07:33:47;;;;;;;2.83;2.53;;;;;;;21.34;59.71;101968.47;5028518;28;20045;-81
2022/09/07 07:36:16;;;;;;;;;;;;;;;21.35;59.76;101981.78;5030650;28;20447;-82
2022/09/07 07:38:46;;;;;;;4.15;2.78;;;;;;;21.40;59.72;101973.97;5031751;28;20408;-82
2022/09/07 07:41:13;;;;;;;3.20;2.70;;;;;;;21.49;59.39;101979.56;5031544;28;20067;-83
2022/09/07 07:43:39;;;;;;;3.13;2.55;;;;;;;21.51;59.55;101971.66;5031228;28;20105;-82
2022/09/07 07:46:06;;;;;;;4.97;3.10;;;;;;;21.48;59.53;101977.78;5029769;28;20109;-79
2022/09/07 07:48:33;;;;;;;4.93;2.72;;;;;;;21.32;59.80;101959.56;5034206;28;20029;-78
2022/09/07 07:51:06;;;;;;;4.38;3.17;;;;;;;21.38;59.71;101973.03;5029041;28;20508;-81
2022/09/07 07:53:34;;;;;;;4.55;3.00;;;;;;;21.42;59.76;101977.63;5010022;28;20029;-79
2022/09/07 07:56:00;;;;;;;4.30;3.10;;;;;;;21.35;59.66;101964.94;5033088;28;20470;-79
2022/09/07 07:58:27;;;;;;;;;;;;;;;21.35;59.96;101976.47;4989256;28;20025;-80
2022/09/07 08:00:54;;;;;;;3.47;2.95;;;;;;;21.35;59.85;101978.25;5012697;28;19963;-82
2022/09/07 08:03:21;;;;;;;4.40;3.15;;;;;;;21.37;59.81;101978.28;5031526;28;20083;-81
2022/09/07 08:05:47;;;;;;;3.28;2.97;;;;;;;21.37;59.87;101978.28;5046308;28;20294;-82
2022/09/07 08:08:14;;;;;;;3.35;3.00;;;;;;;21.25;59.83;101961.16;5051227;28;20507;-81
2022/09/07 08:10:40;;;;;;;3.80;2.70;;;;;;;21.35;60.06;101962.28;5035453;28;20056;-80
2022/09/07 08:13:05;;;;;;;4.57;3.25;;;;;;;21.37;59.73;101963.25;5032542;28;20450;-80
2022/09/07 08:15:46;;;;;;;4.15;3.00;;;;;;;21.41;59.98;101967.78;5030941;28;20034;-82
2022/09/07 08:18:13;;;;;;;4.55;3.15;;;;;;;21.46;59.86;101971.53;5019401;28;20556;-80
2022/09/07 08:20:39;;;;;;;3.63;3.03;;;;;;;21.43;59.89;101971.44;5040164;28;20114;-80
2022/09/07 08:23:06;;;;;;;4.47;3.45;;;;;;;21.39;60.01;101968.59;5006900;28;20508;-80
2022/09/07 08:25:35;;;;;;;4.68;3.17;;;;;;;21.37;60.10;101968.56;5016809;28;20053;-80
2022/09/07 08:28:01;;;;;;;4.25;3.10;;;;;;;21.42;60.00;101974.03;5033147;28;20486;-81
2022/09/07 08:30:28;;;;;;;5.20;3.50;;;;;;;21.47;59.99;101970.66;5034305;28;20079;-81
2022/09/07 08:32:53;;;;;;;5.25;3.58;;;;;;;21.47;59.98;101965.34;5015263;28;20033;-81
2022/09/07 08:35:19;;;;;;;4.35;3.35;;;;;;;21.49;59.99;101966.28;5014938;28;20099;-80
2022/09/07 08:37:45;;;;;;;4.55;3.25;;;;;;;21.41;60.46;101970.44;5032654;28;20025;-80
2022/09/07 08:40:15;;;;;;;3.72;3.33;;;;;;;21.50;60.22;101973.38;5040341;28;20368;-80
2022/09/07 08:42:50;;;;;;;5.72;3.40;;;;;;;21.54;60.11;101977.03;5033804;28;20041;-80
2022/09/07 08:45:32;;;;;;;5.60;3.47;;;;;;;21.50;60.20;101969.84;5031967;28;20029;-79
2022/09/07 08:47:58;;;;;;;4.65;3.38;;;;;;;21.53;60.23;101968.19;5009912;28;20380;-81
2022/09/07 08:50:38;;;;;;;6.32;4.10;;;;;;;21.56;60.76;101970.00;5017876;28;20116;-80
2022/09/07 08:53:10;;;;;;;8.35;4.70;;;;;;;21.51;60.91;101963.69;5023127;28;20490;-80
2022/09/07 08:56:08;;;;;;;5.78;3.67;;;;;;;21.55;60.49;101958.50;5009564;28;20149;-80
2022/09/07 08:58:48;;;;;;;8.00;4.03;;;;;;;21.64;60.34;101963.16;5016174;28;20029;-80
2022/09/07 09:01:15;;;;;;;6.93;4.10;;;;;;;21.60;60.28;101953.28;5032851;28;20036;-80
2022/09/07 09:03:45;;;;;;;6.95;4.05;;;;;;;21.58;60.05;101940.81;5017084;28;20043;-80
2022/09/07 09:06:22;;;;;;;6.70;4.28;;;;;;;21.66;59.97;101949.91;5004133;28;20017;-82
2022/09/07 09:09:21;;;;;;;5.43;4.38;;;;;;;21.62;60.12;101950.69;5014591;28;20103;-80
2022/09/07 09:11:59;;;;;;;5.15;4.03;;;;;;;21.55;60.35;101953.19;5032649;28;20083;-80
2022/09/07 09:14:45;;;;;;;5.68;4.25;;;;;;;21.58;60.66;101949.69;5038116;28;20033;-81
2022/09/07 09:17:38;;;;;;;5.00;3.95;;;;;;;21.56;60.30;101943.44;5028830;28;20040;-80
2022/09/07 09:20:19;;;;;;;5.30;4.40;;;;;;;21.58;60.90;101947.03;5019993;28;20037;-80
2022/09/07 09:22:45;;;;;;;4.70;3.83;;;;;;;21.68;60.47;101943.78;5015433;28;20050;-80
2022/09/07 09:25:20;;;;;;;15.85;4.50;;;;;;;21.64;60.54;101946.31;4995282;28;20084;-79
2022/09/07 09:27:48;;;;;;;5.90;4.67;;;;;;;21.64;60.71;101947.22;4994464;28;20479;-80
2022/09/07 09:30:23;;;;;;;6.78;4.60;;;;;;;21.61;61.13;101951.53;4994794;28;20088;-80
2022/09/07 09:32:51;;;;;;;5.95;4.25;;;;;;;21.64;60.73;101947.22;4994110;28;20108;-80
2022/09/07 09:35:37;;;;;;;7.10;4.60;;;;;;;21.68;60.61;101943.78;5023093;28;20032;-82
2022/09/07 09:38:02;;;;;;;6.78;4.50;;;;;;;21.73;60.46;101938.56;5002165;28;20022;-80
2022/09/07 09:40:33;;;;;;;7.22;4.55;;;;;;;21.73;60.47;101934.16;5011792;28;20026;-79
2022/09/07 09:43:05;;;;;;;5.60;4.05;;;;;;;21.79;60.29;101941.41;4995365;28;20033;-79
2022/09/07 09:45:35;;;;;;;6.05;4.45;;;;;;;21.84;59.84;101936.19;5012354;28;20022;-80
2022/09/07 09:48:09;;;;;;;6.60;4.50;;;;;;;21.70;60.70;101936.75;4994788;28;20585;-80
2022/09/07 09:50:41;;;;;;;5.93;4.43;;;;;;;21.46;60.84;101902.44;5011372;28;20036;-80
2022/09/07 09:53:31;;;;;;;8.85;4.68;;;;;;;21.80;60.33;101942.28;5010318;28;20036;-80
2022/09/07 09:55:59;;;;;;;6.10;4.72;;;;;;;21.68;60.63;101932.25;4994229;28;20022;-79
2022/09/07 09:58:39;;;;;;;7.82;4.63;;;;;;;21.85;60.13;101930.94;4983558;28;20087;-79
2022/09/07 10:01:18;;;;;;;5.32;4.45;;;;;;;21.80;60.19;101943.22;5013741;28;20511;-78
2022/09/07 10:03:44;;;;;;;6.90;4.78;;;;;;;21.85;60.27;101940.69;4994017;28;20480;-81
2022/09/07 10:06:15;;;;;;;6.70;5.03;;;;;;;21.73;60.46;101909.31;5010941;28;20018;-80
2022/09/07 10:08:56;;;;;;;6.10;4.90;;;;;;;21.73;60.22;101919.97;4994566;28;20022;-80
2022/09/07 10:11:41;;;;;;;7.78;5.18;;;;;;;21.73;60.81;101936.81;4978081;28;20038;-80
2022/09/07 10:14:17;;;;;;;7.97;5.32;;;;;;;21.76;60.16;101917.41;4998837;28;20053;-80
2022/09/07 10:16:43;;;;;;;6.43;4.70;;;;;;;21.82;59.78;101912.22;4993213;28;20030;-80
2022/09/07 10:19:36;;;;;;;5.82;4.82;;;;;;;21.75;60.61;101937.75;4991597;28;20112;-78
2022/09/07 10:22:37;;;;;;;11.52;5.45;;;;;;;21.86;58.80;101937.13;4982052;28;20042;-91
2022/09/07 10:25:31;;;;;;;12.63;6.07;;;;;;;22.24;58.13;101934.59;4988926;28;20045;-81
2022/09/07 10:28:09;;;;;;;7.88;5.20;;;;;;;22.00;58.62;101943.72;5003839;28;20106;-81
2022/09/07 10:30:45;;;;;;;11.38;5.72;;;;;;;21.94;58.96;101938.25;5012023;28;20120;-79
2022/09/07 10:33:19;;;;;;;8.43;5.80;;;;;;;21.93;59.12;101940.00;5011087;28;20030;-79
2022/09/07 10:35:48;;;;;;;8.75;5.85;;;;;;;22.05;58.98;101942.06;4994103;28;20065;-80
2022/09/07 10:38:16;;;;;;;7.18;5.57;;;;;;;21.95;59.39;101932.97;4992672;28;20424;-80
2022/09/07 10:40:47;;;;;;;7.35;5.20;;;;;;;21.89;59.55;101931.91;5013203;28;20030;-81
2022/09/07 10:43:22;;;;;;;8.43;5.55;;;;;;;21.95;59.56;101940.06;4993148;28;20052;-80
2022/09/07 10:46:13;;;;;;;8.13;5.65;;;;;;;21.99;59.52;101938.34;4999514;28;20076;-80
2022/09/07 10:48:49;;;;;;;6.75;5.07;;;;;;;21.96;59.51;101934.75;5010681;28;20037;-81
2022/09/07 10:51:17;;;;;;;8.80;5.72;;;;;;;21.86;59.80;101916.75;5003236;28;20065;-81
2022/09/07 10:53:49;;;;;;;10.05;5.90;;;;;;;21.81;60.08;101918.41;4988988;28;20030;-79
2022/09/07 10:56:48;;;;;;;10.10;6.03;;;;;;;21.94;59.56;101923.19;5011639;28;20385;-80
2022/09/07 10:59:19;;;;;;;8.27;5.90;;;;;;;22.10;59.12;101920.94;4983276;28;20529;-80
2022/09/07 11:01:50;;;;;;;7.20;5.13;;;;;;;21.97;59.39;101917.06;5011441;28;20029;-80
2022/09/07 11:04:50;;;;;;;7.57;5.55;;;;;;;21.86;59.87;101924.75;5011224;28;20021;-79
2022/09/07 11:07:30;;;;;;;9.00;5.65;;;;;;;21.89;60.16;101921.28;5011517;28;20026;-79
2022/09/07 11:10:09;;;;;;;9.35;5.35;;;;;;;21.89;59.84;101918.63;5005641;28;20034;-79
2022/09/07 11:12:37;;;;;;;9.73;5.32;;;;;;;21.63;60.34;101891.31;4993983;28;20026;-80
2022/09/07 11:15:12;;;;;;;9.55;5.65;;;;;;;21.83;60.32;101915.81;4977392;28;20403;-78
2022/09/07 11:17:54;;;;;;;7.80;5.43;;;;;;;21.82;60.22;101909.56;5011460;28;20164;-80
2022/09/07 11:20:26;;;;;;;10.23;5.47;;;;;;;21.82;60.77;101919.31;4993666;28;20403;-79
2022/09/07 11:23:26;;;;;;;10.43;5.78;;;;;;;21.85;60.69;101914.09;5010561;28;20056;-80
2022/09/07 11:26:29;;;;;;;8.35;5.28;;;;;;;22.01;60.13;101908.28;5006392;28;20029;-80
2022/09/07 11:29:03;;;;;;;8.68;5.63;;;;;;;22.06;59.60;101901.31;4956271;28;20038;-78
2022/09/07 11:31:39;;;;;;;9.88;5.50;;;;;;;22.07;60.10;101902.22;5000781;28;20025;-79
2022/09/07 11:34:13;;;;;;;11.63;5.65;;;;;;;22.15;59.81;101898.88;5014444;28;20024;-79
2022/09/07 11:36:57;;;;;;;9.55;6.10;;;;;;;22.11;60.29;101901.44;5013179;28;20033;-80
2022/09/07 11:39:30;;;;;;;12.18;5.72;;;;;;;22.20;59.78;101898.97;5012871;28;20022;-80
2022/09/07 11:42:00;;;;;;;13.98;6.18;;;;;;;22.13;60.38;101905.91;5015470;28;20018;-80
2022/09/07 11:44:47;;;;;;;11.55;6.10;;;;;;;22.12;60.60;101895.28;4994184;28;20030;-80